トロンハイム の空港の天気 - METARとTAF

Trondheim / Vaernes ( ENVA / TRD ) - ノルウェー ヌール・トロンデラーグ県、Stjordal
飛行場実況気象(Metar)
観測時間04/21 18:50 CEST (04/21 16:50 UTC)
風向・風速静穏 0m/s
視程10km以上
天気現象
少しの雲 雲底高度 430m
全天の4割程度の雲 雲底高度 1040m
全天の8割程度の雲 雲底高度 1830m
気温9℃
湿度81%
気圧1019hPa
METARENVA 211650Z 00000KT 9999 FEW014 SCT034 BKN060 09/06 Q1019 RMK WIND 670FT 16006KT
過去の天気等 Google飛行場航空写真 Wunderground天気予報

過去48時間のMETAR

飛行場予報(TAF)
発表時間: -
TAF ENVA 2112/2212 VRB07KT 9999 -RA FEW010 SCT020 BKN030